Time;durP1;ratioP1;P1;durP2;ratioP2;P2;SDS_P1;SDS_P2;PMS_P1;PMS_P2;Temp;Humidity;BMP_temperature;BMP_pressure;BME280_temperature;BME280_humidity;BME280_pressure;Samples;Min_cycle;Max_cycle;Signal;HPM_P1;HPM_P2
2021/01/22 00:01:35;;;;;;;1.25;0.60;;;4.60;99.90;;;;;;5070560;28;20048;-67
2021/01/22 00:04:02;;;;;;;1.08;0.68;;;4.60;99.90;;;;;;5070252;28;20447;-67
2021/01/22 00:06:29;;;;;;;1.08;0.70;;;4.60;99.90;;;;;;5070287;28;20048;-67
2021/01/22 00:08:55;;;;;;;0.80;0.60;;;4.60;99.90;;;;;;5070228;28;20053;-67
2021/01/22 00:11:21;;;;;;;1.20;0.80;;;4.60;99.90;;;;;;5070054;28;20438;-67
2021/01/22 00:13:48;;;;;;;1.60;0.80;;;4.60;99.90;;;;;;5069801;28;20048;-67
2021/01/22 00:16:14;;;;;;;1.10;0.70;;;4.60;99.90;;;;;;5070702;28;20546;-67
2021/01/22 00:18:41;;;;;;;1.42;0.80;;;4.50;99.90;;;;;;5070472;28;20329;-67
2021/01/22 00:21:07;;;;;;;1.40;0.95;;;4.60;99.90;;;;;;5069009;28;20098;-67
2021/01/22 00:23:37;;;;;;;1.20;0.70;;;4.60;99.90;;;;;;5071434;28;20523;-67
2021/01/22 00:26:07;;;;;;;1.42;1.00;;;4.50;99.90;;;;;;5070612;28;20064;-67
2021/01/22 00:28:34;;;;;;;1.40;0.90;;;4.50;99.90;;;;;;5069963;28;20060;-67
2021/01/22 00:31:01;;;;;;;1.50;0.98;;;4.50;99.90;;;;;;5069935;28;20456;-67
2021/01/22 00:33:28;;;;;;;1.38;0.82;;;4.50;99.90;;;;;;5052671;28;20071;-67
2021/01/22 00:35:54;;;;;;;1.83;1.00;;;4.50;99.90;;;;;;5062657;28;20430;-67
2021/01/22 00:38:21;;;;;;;1.60;0.90;;;4.50;99.90;;;;;;5069852;28;20124;-67
2021/01/22 00:40:47;;;;;;;1.73;0.88;;;4.50;99.90;;;;;;5070055;28;20105;-67
2021/01/22 00:43:14;;;;;;;1.75;1.00;;;4.40;99.90;;;;;;5068086;28;20049;-67
2021/01/22 00:45:40;;;;;;;1.67;1.10;;;4.50;99.90;;;;;;5062078;28;20080;-67
2021/01/22 00:48:07;;;;;;;2.85;1.10;;;4.40;99.90;;;;;;5073787;28;20153;-67
2021/01/22 00:50:33;;;;;;;1.58;1.00;;;4.50;99.90;;;;;;5073813;28;20088;-67
2021/01/22 00:53:01;;;;;;;1.77;1.10;;;4.40;99.90;;;;;;5073914;28;20392;-67
2021/01/22 00:55:28;;;;;;;1.40;0.90;;;4.40;99.90;;;;;;5073240;28;20048;-67
2021/01/22 00:57:54;;;;;;;1.77;1.10;;;4.40;99.90;;;;;;5073542;28;20059;-68
2021/01/22 01:00:21;;;;;;;1.48;0.90;;;4.40;99.90;;;;;;5073095;28;20114;-67
2021/01/22 01:02:48;;;;;;;1.52;1.02;;;4.40;99.90;;;;;;5064222;28;20045;-67
2021/01/22 01:05:15;;;;;;;1.50;1.00;;;4.40;99.90;;;;;;5069382;28;20053;-67
2021/01/22 01:07:41;;;;;;;2.25;1.10;;;4.40;99.90;;;;;;5073207;28;20090;-67
2021/01/22 01:10:08;;;;;;;3.13;1.20;;;4.40;99.90;;;;;;5073390;28;20064;-67
2021/01/22 01:12:35;;;;;;;1.98;1.25;;;4.40;99.90;;;;;;5072388;28;20052;-67
2021/01/22 01:15:08;;;;;;;1.92;1.17;;;4.40;99.90;;;;;;5072490;28;20044;-67
2021/01/22 01:17:35;;;;;;;2.67;1.20;;;4.40;99.90;;;;;;5073149;28;20102;-67
2021/01/22 01:20:03;;;;;;;1.98;1.17;;;4.40;99.90;;;;;;5073090;28;20053;-67
2021/01/22 01:22:31;;;;;;;1.95;1.35;;;4.40;99.90;;;;;;5072920;28;20041;-67
2021/01/22 01:24:57;;;;;;;1.85;1.13;;;4.40;99.90;;;;;;5073071;28;20399;-67
2021/01/22 01:27:23;;;;;;;2.90;1.40;;;4.40;99.90;;;;;;5073149;28;20044;-67
2021/01/22 01:29:50;;;;;;;2.80;1.40;;;4.40;99.90;;;;;;5072158;28;20071;-67
2021/01/22 01:32:16;;;;;;;2.08;1.30;;;4.40;99.90;;;;;;5072911;28;20103;-67
2021/01/22 01:34:43;;;;;;;2.95;1.27;;;4.40;99.90;;;;;;5072596;28;20055;-67
2021/01/22 01:37:09;;;;;;;2.20;1.65;;;4.40;99.90;;;;;;5072895;28;20074;-67
2021/01/22 01:39:36;;;;;;;2.45;1.25;;;4.40;99.90;;;;;;5072304;28;20080;-67
2021/01/22 01:42:02;;;;;;;3.17;1.60;;;4.30;99.90;;;;;;5072947;28;20102;-67
2021/01/22 01:44:28;;;;;;;3.13;1.58;;;4.30;99.90;;;;;;5072488;28;20052;-67
2021/01/22 01:46:55;;;;;;;2.88;1.58;;;4.30;99.90;;;;;;5072651;28;20056;-67
2021/01/22 01:49:22;;;;;;;2.80;1.63;;;4.30;99.90;;;;;;5066524;28;20106;-67
2021/01/22 01:51:49;;;;;;;2.83;1.77;;;4.30;99.90;;;;;;5072558;28;20061;-67
2021/01/22 01:54:17;;;;;;;4.70;1.95;;;4.30;99.90;;;;;;5072433;28;20041;-67
2021/01/22 01:56:44;;;;;;;3.08;1.60;;;4.30;99.90;;;;;;5071922;28;20102;-67
2021/01/22 01:59:10;;;;;;;3.42;1.90;;;4.30;99.90;;;;;;5070428;28;20052;-67
2021/01/22 02:01:38;;;;;;;2.88;1.90;;;4.30;99.90;;;;;;5072455;28;20045;-67
2021/01/22 02:04:05;;;;;;;3.08;1.83;;;4.30;99.90;;;;;;5072456;28;20592;-67
2021/01/22 02:06:31;;;;;;;2.28;1.55;;;4.30;99.90;;;;;;5072055;28;20060;-67
2021/01/22 02:08:59;;;;;;;2.90;1.70;;;4.40;99.90;;;;;;5072488;28;20060;-68
2021/01/22 02:11:28;;;;;;;2.40;1.42;;;4.40;99.90;;;;;;5071671;28;20048;-67
2021/01/22 02:13:56;;;;;;;3.00;1.63;;;4.40;99.90;;;;;;5071505;28;20154;-67
2021/01/22 02:16:24;;;;;;;3.13;1.80;;;4.30;99.90;;;;;;5072360;28;20426;-68
2021/01/22 02:18:53;;;;;;;3.67;1.90;;;4.30;99.90;;;;;;5072158;28;20049;-67
2021/01/22 02:21:34;;;;;;;3.03;1.60;;;4.30;99.90;;;;;;5071871;28;20051;-67
2021/01/22 02:24:16;;;;;;;3.22;1.92;;;4.40;99.90;;;;;;5071781;28;20071;-67
2021/01/22 02:26:53;;;;;;;2.50;1.60;;;4.30;99.90;;;;;;5072199;28;20058;-67
2021/01/22 02:29:20;;;;;;;3.58;1.90;;;4.30;99.90;;;;;;5069794;28;20067;-67
2021/01/22 02:31:50;;;;;;;4.85;2.53;;;4.30;99.90;;;;;;5060530;28;20041;-67
2021/01/22 02:34:29;;;;;;;3.35;1.83;;;4.30;99.90;;;;;;5071806;28;20049;-67
2021/01/22 02:36:58;;;;;;;2.75;2.00;;;4.20;99.90;;;;;;5070847;28;20048;-67
2021/01/22 02:39:50;;;;;;;3.80;2.08;;;4.20;99.90;;;;;;5071527;28;20052;-67
2021/01/22 02:42:20;;;;;;;2.83;1.70;;;4.20;99.90;;;;;;5071633;28;20129;-67
2021/01/22 02:44:47;;;;;;;2.83;1.73;;;4.20;99.90;;;;;;5071966;28;20102;-67
2021/01/22 02:47:17;;;;;;;2.45;1.40;;;4.20;99.90;;;;;;5071137;28;20139;-67
2021/01/22 02:49:43;;;;;;;1.83;1.20;;;4.20;99.90;;;;;;5071612;28;20553;-67
2021/01/22 02:52:10;;;;;;;2.78;1.20;;;4.20;99.90;;;;;;5071542;28;20102;-67
2021/01/22 02:54:37;;;;;;;2.08;1.10;;;4.20;99.90;;;;;;5071349;28;20471;-67
2021/01/22 02:57:06;;;;;;;1.50;0.90;;;4.20;99.90;;;;;;5071340;28;20094;-67
2021/01/22 02:59:47;;;;;;;;;;;4.20;99.90;;;;;;5070206;28;20053;-67
2021/01/22 03:02:32;;;;;;;1.33;0.63;;;4.20;99.90;;;;;;5071129;28;19963;-67
2021/01/22 03:05:00;;;;;;;1.55;0.77;;;4.20;99.90;;;;;;5071205;28;20139;-67
2021/01/22 03:07:42;;;;;;;1.20;0.68;;;4.20;99.90;;;;;;5070372;28;20076;-67
2021/01/22 03:10:11;;;;;;;1.48;0.60;;;4.20;99.90;;;;;;5071334;28;20102;-67
2021/01/22 03:12:39;;;;;;;1.10;0.65;;;4.20;99.90;;;;;;5070964;28;20056;-67
2021/01/22 03:15:06;;;;;;;1.00;0.60;;;4.20;99.90;;;;;;5070411;28;20048;-67
2021/01/22 03:17:32;;;;;;;1.83;0.70;;;4.10;99.90;;;;;;5071353;28;20098;-67
2021/01/22 03:19:59;;;;;;;1.00;0.57;;;4.10;99.90;;;;;;5071282;28;20048;-67
2021/01/22 03:22:27;;;;;;;1.05;0.50;;;4.10;99.90;;;;;;5070840;28;20480;-67
2021/01/22 03:24:53;;;;;;;1.35;0.60;;;4.00;99.90;;;;;;5071232;28;20106;-67
2021/01/22 03:27:20;;;;;;;1.48;0.45;;;4.00;99.90;;;;;;5071355;28;20510;-67
2021/01/22 03:29:46;;;;;;;1.00;0.50;;;3.90;99.90;;;;;;5068360;28;20122;-67
2021/01/22 03:32:12;;;;;;;2.50;0.60;;;3.90;99.90;;;;;;5070433;28;20048;-67
2021/01/22 03:34:39;;;;;;;1.48;0.70;;;3.80;99.90;;;;;;5070658;28;20484;-67
2021/01/22 03:37:06;;;;;;;1.98;0.50;;;3.90;99.90;;;;;;5071142;28;20077;-67
2021/01/22 03:39:34;;;;;;;2.97;0.73;;;3.80;99.90;;;;;;5070794;28;20056;-67
2021/01/22 03:42:03;;;;;;;1.08;0.50;;;3.80;99.90;;;;;;5070945;28;20045;-67
2021/01/22 03:44:29;;;;;;;2.15;0.60;;;3.80;99.90;;;;;;5069815;28;20052;-67
2021/01/22 03:46:56;;;;;;;1.08;0.50;;;3.80;99.90;;;;;;5072396;28;20045;-67
2021/01/22 03:49:23;;;;;;;1.10;0.43;;;3.80;99.90;;;;;;5070830;28;20495;-67
2021/01/22 03:51:49;;;;;;;2.85;0.70;;;3.80;99.90;;;;;;5070602;28;20049;-67
2021/01/22 03:54:16;;;;;;;1.60;0.80;;;3.80;99.90;;;;;;5069110;28;20080;-67
2021/01/22 03:56:42;;;;;;;2.88;1.10;;;3.80;99.90;;;;;;5070449;28;20049;-67
2021/01/22 03:59:08;;;;;;;1.60;0.75;;;3.80;99.90;;;;;;5068982;28;20049;-67
2021/01/22 04:01:35;;;;;;;1.35;0.65;;;3.80;99.90;;;;;;5070877;28;20049;-67
2021/01/22 04:04:01;;;;;;;2.20;0.80;;;3.80;99.90;;;;;;5067410;28;20380;-67
2021/01/22 04:06:27;;;;;;;1.25;0.80;;;3.80;99.90;;;;;;5059442;28;20056;-67
2021/01/22 04:08:54;;;;;;;1.80;1.00;;;3.80;99.90;;;;;;5071748;28;20529;-67
2021/01/22 04:11:20;;;;;;;3.00;0.80;;;3.80;99.90;;;;;;5070464;28;20130;-67
2021/01/22 04:13:48;;;;;;;2.92;0.90;;;3.80;99.90;;;;;;5070129;28;20061;-67
2021/01/22 04:16:15;;;;;;;2.38;0.93;;;3.80;99.90;;;;;;5069576;28;20508;-67
2021/01/22 04:18:43;;;;;;;2.20;1.00;;;3.80;99.90;;;;;;5071466;28;20090;-67
2021/01/22 04:21:10;;;;;;;2.08;0.88;;;3.70;99.90;;;;;;5075671;28;20049;-68
2021/01/22 04:23:36;;;;;;;2.83;1.10;;;3.70;99.90;;;;;;5074263;28;20052;-68
2021/01/22 04:26:03;;;;;;;2.35;1.05;;;3.70;99.90;;;;;;5073486;28;20048;-68
2021/01/22 04:28:29;;;;;;;1.75;0.90;;;3.70;99.90;;;;;;5072294;28;20099;-68
2021/01/22 04:30:56;;;;;;;2.85;1.20;;;3.70;99.90;;;;;;5073020;28;20052;-68
2021/01/22 04:33:22;;;;;;;3.05;1.20;;;3.60;99.90;;;;;;5073839;28;20446;-67
2021/01/22 04:35:48;;;;;;;3.15;1.30;;;3.60;99.90;;;;;;5073661;28;20052;-67
2021/01/22 04:38:15;;;;;;;2.92;1.23;;;3.60;99.90;;;;;;5073500;28;20045;-67
2021/01/22 04:40:42;;;;;;;2.30;1.80;;;3.60;99.90;;;;;;5073507;28;20104;-67
2021/01/22 04:43:09;;;;;;;2.05;1.27;;;3.60;99.90;;;;;;5073956;28;20041;-68
2021/01/22 04:45:35;;;;;;;2.78;1.50;;;3.60;99.90;;;;;;5070643;28;20091;-68
2021/01/22 04:48:04;;;;;;;2.47;1.50;;;3.60;99.90;;;;;;5073656;28;20044;-68
2021/01/22 04:50:31;;;;;;;2.03;1.40;;;3.60;99.90;;;;;;5074734;28;20442;-68
2021/01/22 04:53:02;;;;;;;3.38;1.70;;;3.60;99.90;;;;;;5077970;28;20052;-68
2021/01/22 04:55:31;;;;;;;3.30;1.90;;;3.60;99.90;;;;;;5075976;28;20047;-67
2021/01/22 04:58:02;;;;;;;3.33;1.80;;;3.60;99.90;;;;;;5071734;28;20412;-68
2021/01/22 05:00:30;;;;;;;4.03;1.85;;;3.60;99.90;;;;;;5105972;27;20044;-68
2021/01/22 05:02:56;;;;;;;3.67;2.22;;;3.60;99.90;;;;;;5075236;28;20066;-68
2021/01/22 05:05:24;;;;;;;5.35;2.50;;;3.50;99.90;;;;;;5074810;28;20045;-68
2021/01/22 05:07:50;;;;;;;4.72;2.90;;;3.50;99.90;;;;;;5073936;28;20455;-68
2021/01/22 05:10:17;;;;;;;7.40;2.88;;;3.50;99.90;;;;;;5077005;28;20052;-67
2021/01/22 05:12:43;;;;;;;5.53;3.17;;;3.50;99.90;;;;;;5076417;28;20170;-68
2021/01/22 05:15:20;;;;;;;4.90;3.30;;;3.50;99.90;;;;;;5072927;28;20044;-68
2021/01/22 05:18:00;;;;;;;4.72;3.15;;;3.50;99.90;;;;;;5070953;28;20045;-68
2021/01/22 05:20:30;;;;;;;5.07;2.90;;;3.50;99.90;;;;;;5073871;28;20040;-68
2021/01/22 05:23:01;;;;;;;5.63;3.40;;;3.50;99.90;;;;;;5109371;27;20383;-68
2021/01/22 05:25:29;;;;;;;5.78;3.33;;;3.50;99.90;;;;;;5077348;28;20066;-68
2021/01/22 05:27:57;;;;;;;7.05;3.47;;;3.50;99.90;;;;;;5079047;28;20052;-68
2021/01/22 05:30:25;;;;;;;6.15;3.35;;;3.50;99.90;;;;;;5069467;28;20106;-68
2021/01/22 05:33:12;;;;;;;7.78;3.85;;;3.50;99.90;;;;;;5073112;28;20140;-68
2021/01/22 05:35:39;;;;;;;7.95;3.22;;;3.50;99.90;;;;;;5072645;28;20052;-68
2021/01/22 05:38:06;;;;;;;7.82;3.55;;;3.50;99.90;;;;;;5072649;28;20051;-68
2021/01/22 05:40:32;;;;;;;6.55;3.95;;;3.50;99.90;;;;;;5072664;28;20049;-68
2021/01/22 05:42:59;;;;;;;8.27;3.72;;;3.50;99.90;;;;;;5072662;28;20060;-68
2021/01/22 05:45:46;;;;;;;6.07;3.70;;;3.50;99.90;;;;;;5072007;28;20048;-68
2021/01/22 05:48:22;;;;;;;8.38;3.55;;;3.50;99.90;;;;;;5072584;28;20052;-68
2021/01/22 05:50:59;;;;;;;6.28;3.80;;;3.50;99.90;;;;;;5072410;28;20048;-68
2021/01/22 05:53:27;;;;;;;6.20;3.58;;;3.50;99.90;;;;;;5072852;28;20044;-68
2021/01/22 05:56:09;;;;;;;7.75;3.58;;;3.50;99.90;;;;;;5072411;28;20056;-67
2021/01/22 05:58:38;;;;;;;5.97;3.03;;;3.50;99.90;;;;;;5071324;28;20098;-68
2021/01/22 06:01:09;;;;;;;8.68;3.63;;;3.50;99.90;;;;;;5072100;28;20441;-67
2021/01/22 06:03:37;;;;;;;5.93;3.97;;;3.50;99.90;;;;;;5072572;28;20076;-68
2021/01/22 06:06:06;;;;;;;6.07;3.63;;;3.50;99.90;;;;;;5071911;28;20044;-68
2021/01/22 06:08:33;;;;;;;6.78;3.70;;;3.50;99.90;;;;;;5071838;28;20064;-68
2021/01/22 06:11:01;;;;;;;8.45;3.53;;;3.50;99.90;;;;;;5072516;28;20053;-68
2021/01/22 06:13:30;;;;;;;8.37;3.03;;;3.50;99.90;;;;;;5071937;28;20472;-68
2021/01/22 06:16:01;;;;;;;6.55;3.70;;;3.50;99.90;;;;;;5071173;28;20499;-68
2021/01/22 06:18:30;;;;;;;4.68;3.20;;;3.50;99.90;;;;;;5102077;28;20506;-68
2021/01/22 06:21:23;;;;;;;8.15;3.20;;;3.50;99.90;;;;;;5071478;28;20052;-68
2021/01/22 06:23:51;;;;;;;5.68;3.17;;;3.60;99.90;;;;;;5071239;28;20045;-68
2021/01/22 06:26:19;;;;;;;6.68;3.50;;;3.50;99.90;;;;;;5071140;28;20049;-68
2021/01/22 06:28:48;;;;;;;4.82;3.30;;;3.60;99.90;;;;;;5069378;28;20044;-68
2021/01/22 06:31:19;;;;;;;8.95;3.70;;;3.60;99.90;;;;;;5071029;28;20106;-68
2021/01/22 06:33:47;;;;;;;4.63;2.95;;;3.60;99.90;;;;;;5069675;28;20044;-68
2021/01/22 06:36:15;;;;;;;6.35;3.83;;;3.50;99.90;;;;;;5070611;28;20063;-68
2021/01/22 06:38:42;;;;;;;6.18;3.80;;;3.50;99.90;;;;;;5071480;28;20379;-68
2021/01/22 06:41:12;;;;;;;6.03;3.60;;;3.50;99.90;;;;;;5070809;28;20048;-67
2021/01/22 06:43:39;;;;;;;5.90;3.17;;;3.50;99.90;;;;;;5070686;28;20048;-68
2021/01/22 06:46:15;;;;;;;6.68;3.55;;;3.50;99.90;;;;;;5070628;28;20075;-68
2021/01/22 06:48:57;;;;;;;5.72;3.53;;;3.50;99.90;;;;;;5070362;28;20049;-68
2021/01/22 06:51:26;;;;;;;6.40;3.67;;;3.50;99.90;;;;;;5070805;28;20102;-67
2021/01/22 06:54:16;;;;;;;5.88;3.13;;;3.40;99.90;;;;;;5069306;28;20052;-68
2021/01/22 06:56:49;;;;;;;4.45;3.00;;;3.40;99.90;;;;;;5070502;28;20048;-68
2021/01/22 06:59:22;;;;;;;5.57;3.78;;;3.40;99.90;;;;;;5067395;28;20067;-68
2021/01/22 07:01:49;;;;;;;7.38;3.97;;;3.30;99.90;;;;;;5070238;28;20170;-68
2021/01/22 07:04:34;;;;;;;8.55;3.97;;;3.30;99.90;;;;;;5070421;28;20183;-68
2021/01/22 07:07:06;;;;;;;7.80;3.60;;;3.30;99.90;;;;;;5064754;28;20102;-68
2021/01/22 07:09:41;;;;;;;5.63;3.65;;;3.30;99.90;;;;;;5055581;28;20079;-68
2021/01/22 07:12:09;;;;;;;7.78;3.45;;;3.30;99.90;;;;;;5059703;28;20452;-68
2021/01/22 07:14:38;;;;;;;6.47;4.20;;;3.30;99.90;;;;;;5063599;28;20044;-67
2021/01/22 07:17:20;;;;;;;9.52;3.55;;;3.30;99.90;;;;;;5090276;27;20044;-68
2021/01/22 07:20:12;;;;;;;6.32;3.05;;;3.30;99.90;;;;;;5070337;28;20080;-68
2021/01/22 07:23:00;;;;;;;6.93;3.38;;;3.30;99.90;;;;;;5066098;28;20040;-67
2021/01/22 07:25:44;;;;;;;5.43;3.42;;;3.20;99.90;;;;;;5065204;28;20057;-67
2021/01/22 07:28:23;;;;;;;5.95;3.67;;;3.20;99.90;;;;;;5065075;28;20093;-67
2021/01/22 07:30:50;;;;;;;7.15;3.03;;;3.20;99.90;;;;;;5067725;28;20055;-67
2021/01/22 07:33:26;;;;;;;7.78;3.50;;;3.20;99.90;;;;;;5064001;28;20130;-66
2021/01/22 07:36:14;;;;;;;5.78;3.33;;;3.20;99.90;;;;;;5081595;28;20543;-67
2021/01/22 07:38:42;;;;;;;6.80;3.20;;;3.10;99.90;;;;;;5098560;27;20044;-67
2021/01/22 07:41:10;;;;;;;5.18;3.00;;;3.10;99.90;;;;;;5066514;28;20055;-67
2021/01/22 07:43:36;;;;;;;10.27;4.53;;;3.20;99.90;;;;;;5067929;28;20036;-67
2021/01/22 07:46:11;;;;;;;5.82;3.40;;;3.20;99.90;;;;;;5069004;28;20102;-67
2021/01/22 07:48:39;;;;;;;4.35;2.95;;;3.20;99.90;;;;;;5071449;28;20048;-67
2021/01/22 07:51:32;;;;;;;5.15;3.00;;;3.10;99.90;;;;;;5071574;28;20137;-67
2021/01/22 07:54:03;;;;;;;7.28;3.63;;;3.10;99.90;;;;;;5068303;28;20055;-67
2021/01/22 07:56:40;;;;;;;4.95;3.33;;;3.10;99.90;;;;;;5069198;28;20037;-67
2021/01/22 07:59:12;;;;;;;6.65;3.75;;;3.10;99.90;;;;;;5098050;28;20052;-67
2021/01/22 08:01:41;;;;;;;6.45;3.40;;;3.10;99.90;;;;;;5065505;28;20113;-67
2021/01/22 08:04:08;;;;;;;6.65;3.53;;;3.10;99.90;;;;;;5072403;28;20048;-67
2021/01/22 08:06:49;;;;;;;7.03;4.05;;;3.10;99.90;;;;;;5066910;28;20155;-67
2021/01/22 08:09:17;;;;;;;6.32;3.28;;;3.10;99.90;;;;;;5066047;28;20040;-67
2021/01/22 08:11:45;;;;;;;5.35;3.17;;;3.10;99.90;;;;;;5067472;28;20117;-67
2021/01/22 08:14:12;;;;;;;7.15;3.78;;;3.10;99.90;;;;;;5065292;28;20051;-67
2021/01/22 08:16:41;;;;;;;8.23;3.45;;;3.10;99.90;;;;;;5067118;28;20356;-67
2021/01/22 08:19:07;;;;;;;5.90;3.75;;;3.10;99.90;;;;;;5102992;28;20056;-67
2021/01/22 08:21:38;;;;;;;6.88;3.90;;;3.10;99.90;;;;;;5070366;28;20048;-67
2021/01/22 08:24:10;;;;;;;6.38;3.80;;;3.10;99.90;;;;;;5065574;28;20110;-67
2021/01/22 08:26:38;;;;;;;7.65;3.85;;;3.10;99.90;;;;;;5071539;28;20048;-67
2021/01/22 08:29:09;;;;;;;8.27;3.30;;;3.10;99.90;;;;;;5070165;28;20056;-67
2021/01/22 08:31:38;;;;;;;6.43;3.42;;;3.10;99.90;;;;;;5068401;28;20376;-67
2021/01/22 08:34:06;;;;;;;6.75;3.40;;;3.10;99.90;;;;;;5067408;28;20071;-67
2021/01/22 08:36:33;;;;;;;6.90;3.22;;;3.10;99.90;;;;;;5066231;28;20078;-67
2021/01/22 08:38:59;;;;;;;5.50;3.60;;;3.10;99.90;;;;;;5066704;28;20049;-67
2021/01/22 08:41:26;;;;;;;6.82;3.67;;;3.10;99.90;;;;;;5066528;28;20056;-67
2021/01/22 08:43:55;;;;;;;4.82;3.15;;;3.10;99.90;;;;;;5100291;28;20484;-67
2021/01/22 08:46:26;;;;;;;5.40;3.47;;;3.10;99.90;;;;;;5085073;28;20484;-67
2021/01/22 08:48:53;;;;;;;10.20;3.30;;;3.10;99.90;;;;;;5067728;28;21279;-67
2021/01/22 08:51:27;;;;;;;7.25;3.40;;;3.20;99.90;;;;;;5068922;28;20458;-67
2021/01/22 08:53:56;;;;;;;7.20;3.40;;;3.20;99.90;;;;;;5071403;28;20056;-67
2021/01/22 08:56:23;;;;;;;7.40;4.07;;;3.20;99.90;;;;;;5066911;28;20048;-67
2021/01/22 08:59:14;;;;;;;8.00;4.10;;;3.20;99.90;;;;;;5070585;28;21025;-66
2021/01/22 09:01:57;;;;;;;6.25;3.60;;;3.20;99.90;;;;;;5069629;28;20044;-67
2021/01/22 09:04:27;;;;;;;7.20;3.90;;;3.20;99.90;;;;;;5069139;28;20102;-67
2021/01/22 09:06:59;;;;;;;6.45;3.95;;;3.30;99.90;;;;;;5066992;28;20044;-67
2021/01/22 09:09:46;;;;;;;6.88;4.15;;;3.30;99.90;;;;;;5069874;28;20059;-67
2021/01/22 09:12:25;;;;;;;8.43;4.88;;;3.30;99.90;;;;;;5070234;28;20051;-67
2021/01/22 09:14:53;;;;;;;;;;;3.40;99.90;;;;;;5081133;28;20047;-67
2021/01/22 09:17:24;;;;;;;8.23;3.72;;;3.40;99.90;;;;;;5067820;28;20291;-67
2021/01/22 09:19:58;;;;;;;5.55;3.58;;;3.40;99.90;;;;;;5070371;28;20052;-68
2021/01/22 09:22:27;;;;;;;6.38;3.72;;;3.50;99.90;;;;;;5108696;27;20105;-67
2021/01/22 09:24:54;;;;;;;;;;;3.50;99.90;;;;;;5071021;28;20526;-67
2021/01/22 09:27:21;;;;;;;5.78;3.50;;;3.50;99.90;;;;;;5074232;28;19964;-67
2021/01/22 09:29:47;;;;;;;8.43;3.90;;;3.60;99.90;;;;;;5069945;28;20514;-67
2021/01/22 09:32:14;;;;;;;8.70;4.32;;;3.70;99.90;;;;;;5072644;28;20052;-66
2021/01/22 09:34:40;;;;;;;7.93;3.92;;;3.80;99.90;;;;;;5070985;28;20097;-67
2021/01/22 09:37:07;;;;;;;8.23;3.97;;;4.00;99.90;;;;;;5073328;28;20060;-67
2021/01/22 09:39:46;;;;;;;6.78;4.25;;;4.10;99.90;;;;;;5072347;28;20409;-67
2021/01/22 09:42:13;;;;;;;8.45;3.97;;;4.10;99.90;;;;;;5070344;28;20067;-67
2021/01/22 09:44:39;;;;;;;7.65;4.13;;;4.20;99.90;;;;;;5067718;28;20052;-67
2021/01/22 09:47:05;;;;;;;7.80;4.68;;;4.30;99.90;;;;;;5071280;28;20056;-67
2021/01/22 09:49:34;;;;;;;8.80;4.28;;;4.40;99.90;;;;;;5074190;28;20140;-67
2021/01/22 09:52:02;;;;;;;7.53;4.50;;;4.40;99.90;;;;;;5054298;28;20052;-67
2021/01/22 09:54:29;;;;;;;7.28;3.63;;;4.50;99.90;;;;;;5051164;28;20049;-67
2021/01/22 09:56:55;;;;;;;6.90;3.45;;;4.60;99.90;;;;;;5067748;28;20514;-67
2021/01/22 09:59:21;;;;;;;6.35;3.90;;;4.60;99.90;;;;;;5061076;28;20467;-67
2021/01/22 10:01:48;;;;;;;7.18;3.45;;;4.70;99.90;;;;;;5067142;28;20075;-67
2021/01/22 10:04:14;;;;;;;6.80;3.25;;;4.70;99.90;;;;;;5064040;28;20136;-67
2021/01/22 10:06:41;;;;;;;7.82;3.50;;;4.70;99.90;;;;;;5070795;28;20040;-67
2021/01/22 10:09:10;;;;;;;6.65;3.50;;;4.70;99.90;;;;;;5069566;28;20054;-67
2021/01/22 10:11:41;;;;;;;7.13;3.17;;;4.70;99.90;;;;;;5067433;28;20075;-67
2021/01/22 10:14:11;;;;;;;5.00;3.30;;;4.80;99.90;;;;;;5068931;28;20055;-67
2021/01/22 10:16:38;;;;;;;9.20;3.67;;;4.80;99.90;;;;;;5065460;28;20063;-67
2021/01/22 10:19:04;;;;;;;6.90;3.50;;;4.90;99.90;;;;;;5064982;28;20060;-67
2021/01/22 10:21:32;;;;;;;5.85;3.42;;;5.10;99.90;;;;;;5067052;28;20493;-67
2021/01/22 10:23:58;;;;;;;6.60;3.40;;;5.30;99.90;;;;;;5065664;28;20045;-67
2021/01/22 10:26:25;;;;;;;4.68;2.83;;;5.40;99.90;;;;;;5068206;28;20106;-67
2021/01/22 10:28:52;;;;;;;8.38;3.88;;;5.50;99.90;;;;;;5068040;28;20060;-67
2021/01/22 10:31:20;;;;;;;7.65;3.90;;;5.60;99.90;;;;;;5063995;28;20051;-66
2021/01/22 10:33:47;;;;;;;8.00;3.42;;;5.70;99.90;;;;;;5065809;28;20059;-67
2021/01/22 10:36:15;;;;;;;8.02;3.92;;;5.90;99.90;;;;;;5066393;28;20052;-67
2021/01/22 10:38:42;;;;;;;8.32;4.00;;;6.10;99.90;;;;;;5064413;28;23439;-67
2021/01/22 10:41:10;;;;;;;7.07;3.72;;;6.30;99.90;;;;;;5070154;28;20401;-67
2021/01/22 10:43:37;;;;;;;6.53;3.20;;;6.60;99.90;;;;;;5058823;28;21406;-67
2021/01/22 10:46:04;;;;;;;7.55;3.42;;;6.80;99.90;;;;;;5059211;28;20058;-67
2021/01/22 10:48:30;;;;;;;5.38;3.65;;;7.00;99.90;;;;;;5070187;28;20093;-67
2021/01/22 10:50:57;;;;;;;4.93;2.75;;;7.20;99.90;;;;;;5064376;28;20127;-66
2021/01/22 10:53:24;;;;;;;6.38;3.47;;;7.50;99.90;;;;;;5069550;28;20517;-66
2021/01/22 10:55:52;;;;;;;4.85;3.30;;;7.60;99.90;;;;;;5070885;28;20062;-67
2021/01/22 10:58:18;;;;;;;6.38;3.40;;;7.70;99.90;;;;;;5068624;28;20425;-67
2021/01/22 11:00:47;;;;;;;6.85;3.33;;;7.90;99.90;;;;;;5071229;28;20047;-67
2021/01/22 11:03:13;;;;;;;4.20;2.90;;;8.10;99.90;;;;;;5072380;28;20048;-67
2021/01/22 11:05:39;;;;;;;7.70;3.95;;;8.20;99.90;;;;;;5076991;28;20133;-67
2021/01/22 11:08:11;;;;;;;5.55;2.75;;;8.10;99.90;;;;;;5069137;28;20048;-68
2021/01/22 11:10:39;;;;;;;8.38;3.50;;;8.00;99.90;;;;;;5069096;28;20384;-67
2021/01/22 11:13:05;;;;;;;10.20;3.60;;;7.80;99.90;;;;;;5069347;28;20109;-67
2021/01/22 11:15:34;;;;;;;8.65;3.40;;;7.80;99.90;;;;;;5068349;28;20052;-67
2021/01/22 11:18:02;;;;;;;6.15;3.50;;;7.80;99.90;;;;;;5069689;28;20090;-67
2021/01/22 11:20:28;;;;;;;7.05;3.28;;;7.80;99.90;;;;;;5070756;28;20487;-67
2021/01/22 11:22:55;;;;;;;7.07;3.42;;;7.80;99.90;;;;;;5067834;28;20043;-67
2021/01/22 11:25:22;;;;;;;5.95;3.00;;;7.70;99.90;;;;;;5066348;28;20553;-67
2021/01/22 11:27:48;;;;;;;4.07;2.47;;;7.80;99.90;;;;;;5073624;28;20414;-67
2021/01/22 11:30:16;;;;;;;8.63;3.03;;;8.00;99.90;;;;;;5068901;28;20484;-67
2021/01/22 11:32:43;;;;;;;5.97;2.90;;;8.30;99.90;;;;;;5068544;28;20060;-67
2021/01/22 11:35:10;;;;;;;5.20;2.70;;;8.50;99.90;;;;;;5068717;28;20052;-67
2021/01/22 11:37:41;;;;;;;9.52;3.28;;;8.50;99.90;;;;;;5065135;28;20551;-67
2021/01/22 11:40:09;;;;;;;4.47;2.60;;;8.50;99.90;;;;;;5068791;28;20056;-67
2021/01/22 11:42:36;;;;;;;7.43;3.10;;;8.60;99.90;;;;;;5071288;28;20041;-66
2021/01/22 11:45:04;;;;;;;9.10;3.05;;;8.60;99.90;;;;;;5070392;28;20044;-67
2021/01/22 11:47:32;;;;;;;5.70;2.70;;;8.60;99.90;;;;;;5068397;28;20143;-67
2021/01/22 11:49:58;;;;;;;5.97;2.88;;;8.60;99.90;;;;;;5069765;28;20052;-67
2021/01/22 11:52:25;;;;;;;8.25;3.03;;;8.60;99.90;;;;;;5071735;28;20162;-67
2021/01/22 11:54:51;;;;;;;5.85;2.65;;;8.60;99.90;;;;;;5070534;28;20044;-67
2021/01/22 11:57:18;;;;;;;5.70;2.60;;;8.60;99.90;;;;;;5069119;28;20118;-67
2021/01/22 11:59:44;;;;;;;6.25;2.28;;;8.70;99.90;;;;;;5064091;28;20443;-67
2021/01/22 12:02:11;;;;;;;4.75;2.40;;;8.70;99.90;;;;;;5067525;28;20056;-67
2021/01/22 12:04:38;;;;;;;5.00;2.10;;;8.80;99.90;;;;;;5065191;28;20410;-66
2021/01/22 12:07:04;;;;;;;5.68;2.28;;;8.90;99.90;;;;;;5067982;28;20060;-67
2021/01/22 12:09:30;;;;;;;4.30;1.98;;;8.90;99.90;;;;;;5068401;28;20037;-67
2021/01/22 12:11:57;;;;;;;6.40;2.03;;;9.00;99.90;;;;;;5065839;28;20056;-67
2021/01/22 12:14:23;;;;;;;6.68;2.30;;;9.10;99.90;;;;;;5065968;28;20044;-67
2021/01/22 12:16:50;;;;;;;6.95;2.20;;;9.20;99.90;;;;;;5064769;28;20059;-67
2021/01/22 12:19:18;;;;;;;5.53;2.00;;;9.20;99.90;;;;;;5066715;28;20128;-67
2021/01/22 12:21:45;;;;;;;5.40;2.13;;;9.20;99.90;;;;;;5068736;28;20449;-67
2021/01/22 12:24:11;;;;;;;5.40;1.80;;;9.40;99.90;;;;;;5069364;28;20410;-67
2021/01/22 12:26:38;;;;;;;5.93;2.08;;;9.40;99.90;;;;;;5068504;28;20055;-67
2021/01/22 12:29:05;;;;;;;5.97;1.88;;;9.40;99.90;;;;;;5066756;28;20060;-67
2021/01/22 12:31:31;;;;;;;5.25;1.65;;;9.50;99.90;;;;;;5069826;28;20163;-67
2021/01/22 12:33:58;;;;;;;3.78;2.10;;;9.70;99.90;;;;;;5067410;28;20048;-67
2021/01/22 12:36:25;;;;;;;6.85;1.80;;;9.80;99.90;;;;;;5067458;28;20174;-67
2021/01/22 12:38:51;;;;;;;5.13;1.85;;;9.90;99.90;;;;;;5066282;28;20412;-67
2021/01/22 12:41:18;;;;;;;6.32;1.80;;;9.90;99.90;;;;;;5073268;28;20056;-67
2021/01/22 12:43:44;;;;;;;5.78;1.60;;;9.90;99.90;;;;;;5072187;28;20052;-66
2021/01/22 12:46:12;;;;;;;4.10;1.60;;;9.80;99.90;;;;;;5071639;28;20050;-67
2021/01/22 12:48:39;;;;;;;3.47;1.50;;;9.80;99.90;;;;;;5069356;28;20048;-67
2021/01/22 12:51:06;;;;;;;5.70;1.90;;;9.80;99.90;;;;;;5068426;28;20106;-67
2021/01/22 12:53:33;;;;;;;5.28;1.80;;;9.80;99.90;;;;;;5073689;28;20448;-67
2021/01/22 12:55:59;;;;;;;6.13;1.80;;;9.80;99.90;;;;;;5067463;28;20167;-67
2021/01/22 12:58:26;;;;;;;4.43;1.50;;;9.80;99.90;;;;;;5074964;28;20044;-65
2021/01/22 13:00:54;;;;;;;4.13;1.73;;;9.80;99.90;;;;;;5074621;28;20077;-65
2021/01/22 13:03:24;;;;;;;5.43;1.48;;;9.90;99.90;;;;;;5077251;28;20044;-66
2021/01/22 13:05:51;;;;;;;4.03;1.30;;;9.80;99.90;;;;;;5077578;28;20059;-64
2021/01/22 13:08:17;;;;;;;5.13;1.35;;;9.90;99.90;;;;;;5071747;28;20076;-67